sensor_id;sensor_type;location;lat;lon;timestamp;temperature;humidity
52275;DHT22;38228;50.940;4.024;2023-02-11T00:00:53;6.70;99.90
52275;DHT22;38228;50.940;4.024;2023-02-11T00:03:19;6.80;99.90
52275;DHT22;38228;50.940;4.024;2023-02-11T00:05:44;6.80;99.90
52275;DHT22;38228;50.940;4.024;2023-02-11T00:08:10;6.80;99.90
52275;DHT22;38228;50.940;4.024;2023-02-11T00:10:41;6.70;99.90
52275;DHT22;38228;50.940;4.024;2023-02-11T00:13:06;6.80;99.90
52275;DHT22;38228;50.940;4.024;2023-02-11T00:15:32;6.80;99.90
52275;DHT22;38228;50.940;4.024;2023-02-11T00:17:58;6.90;99.90
52275;DHT22;38228;50.940;4.024;2023-02-11T00:20:23;6.70;99.90
52275;DHT22;38228;50.940;4.024;2023-02-11T00:22:49;6.70;99.90
52275;DHT22;38228;50.940;4.024;2023-02-11T00:25:14;6.80;99.90
52275;DHT22;38228;50.940;4.024;2023-02-11T00:27:40;6.60;99.90
52275;DHT22;38228;50.940;4.024;2023-02-11T00:30:05;6.50;99.90
52275;DHT22;38228;50.940;4.024;2023-02-11T00:32:31;6.50;99.90
52275;DHT22;38228;50.940;4.024;2023-02-11T00:34:57;6.40;99.90
52275;DHT22;38228;50.940;4.024;2023-02-11T00:37:22;6.40;99.90
52275;DHT22;38228;50.940;4.024;2023-02-11T00:39:47;6.40;99.90
52275;DHT22;38228;50.940;4.024;2023-02-11T00:42:14;6.50;99.90
52275;DHT22;38228;50.940;4.024;2023-02-11T00:44:40;6.60;99.90
52275;DHT22;38228;50.940;4.024;2023-02-11T00:47:05;6.50;99.90
52275;DHT22;38228;50.940;4.024;2023-02-11T00:49:31;6.50;99.90
52275;DHT22;38228;50.940;4.024;2023-02-11T00:51:56;6.50;99.90
52275;DHT22;38228;50.940;4.024;2023-02-11T00:54:22;6.40;99.90
52275;DHT22;38228;50.940;4.024;2023-02-11T00:56:48;6.30;99.90
52275;DHT22;38228;50.940;4.024;2023-02-11T00:59:13;6.30;99.90
52275;DHT22;38228;50.940;4.024;2023-02-11T01:01:39;6.30;99.90
52275;DHT22;38228;50.940;4.024;2023-02-11T01:04:04;6.30;99.90
52275;DHT22;38228;50.940;4.024;2023-02-11T01:06:30;6.20;99.90
52275;DHT22;38228;50.940;4.024;2023-02-11T01:08:55;6.40;99.90
52275;DHT22;38228;50.940;4.024;2023-02-11T01:11:21;6.30;99.90
52275;DHT22;38228;50.940;4.024;2023-02-11T01:13:47;6.30;99.90
52275;DHT22;38228;50.940;4.024;2023-02-11T01:16:13;6.40;99.90
52275;DHT22;38228;50.940;4.024;2023-02-11T01:18:39;6.40;99.90
52275;DHT22;38228;50.940;4.024;2023-02-11T01:21:06;6.40;99.90
52275;DHT22;38228;50.940;4.024;2023-02-11T01:23:32;6.50;99.90
52275;DHT22;38228;50.940;4.024;2023-02-11T01:25:57;6.50;99.90
52275;DHT22;38228;50.940;4.024;2023-02-11T01:28:23;6.50;99.90
52275;DHT22;38228;50.940;4.024;2023-02-11T01:30:49;6.60;99.90
52275;DHT22;38228;50.940;4.024;2023-02-11T01:33:15;6.70;99.90
52275;DHT22;38228;50.940;4.024;2023-02-11T01:35:41;6.80;99.90
52275;DHT22;38228;50.940;4.024;2023-02-11T01:38:07;6.70;99.90
52275;DHT22;38228;50.940;4.024;2023-02-11T01:40:33;6.70;99.90
52275;DHT22;38228;50.940;4.024;2023-02-11T01:42:58;6.60;99.90
52275;DHT22;38228;50.940;4.024;2023-02-11T01:48:09;6.60;99.90
52275;DHT22;38228;50.940;4.024;2023-02-11T01:50:36;6.60;99.90
52275;DHT22;38228;50.940;4.024;2023-02-11T01:53:03;6.60;99.90
52275;DHT22;38228;50.940;4.024;2023-02-11T01:55:47;6.50;99.90
52275;DHT22;38228;50.940;4.024;2023-02-11T01:58:32;6.60;99.90
52275;DHT22;38228;50.940;4.024;2023-02-11T02:01:00;6.70;99.90
52275;DHT22;38228;50.940;4.024;2023-02-11T02:03:27;6.70;99.90
52275;DHT22;38228;50.940;4.024;2023-02-11T02:06:00;6.70;99.90
52275;DHT22;38228;50.940;4.024;2023-02-11T02:08:35;6.80;99.90
52275;DHT22;38228;50.940;4.024;2023-02-11T02:11:03;6.90;99.90
52275;DHT22;38228;50.940;4.024;2023-02-11T02:13:30;6.80;99.90
52275;DHT22;38228;50.940;4.024;2023-02-11T02:15:56;6.80;99.90
52275;DHT22;38228;50.940;4.024;2023-02-11T02:26:25;7.00;99.90
52275;DHT22;38228;50.940;4.024;2023-02-11T02:29:05;7.10;99.90
52275;DHT22;38228;50.940;4.024;2023-02-11T02:37:00;7.20;99.90
52275;DHT22;38228;50.940;4.024;2023-02-11T02:39:30;7.20;99.90
52275;DHT22;38228;50.940;4.024;2023-02-11T02:41:57;7.10;99.90
52275;DHT22;38228;50.940;4.024;2023-02-11T02:44:22;7.10;99.90
52275;DHT22;38228;50.940;4.024;2023-02-11T02:46:48;7.20;99.90
52275;DHT22;38228;50.940;4.024;2023-02-11T02:49:15;7.20;99.90
52275;DHT22;38228;50.940;4.024;2023-02-11T02:51:51;7.20;99.90
52275;DHT22;38228;50.940;4.024;2023-02-11T03:07:08;7.30;99.90
52275;DHT22;38228;50.940;4.024;2023-02-11T03:09:38;7.30;99.90
52275;DHT22;38228;50.940;4.024;2023-02-11T03:12:05;7.30;99.90
52275;DHT22;38228;50.940;4.024;2023-02-11T03:14:31;7.40;99.90
52275;DHT22;38228;50.940;4.024;2023-02-11T03:16:58;7.30;99.90
52275;DHT22;38228;50.940;4.024;2023-02-11T03:19:27;7.30;99.90
52275;DHT22;38228;50.940;4.024;2023-02-11T03:21:53;7.30;99.90
52275;DHT22;38228;50.940;4.024;2023-02-11T03:24:20;7.30;99.90
52275;DHT22;38228;50.940;4.024;2023-02-11T03:26:49;7.30;99.90
52275;DHT22;38228;50.940;4.024;2023-02-11T03:29:17;7.40;99.90
52275;DHT22;38228;50.940;4.024;2023-02-11T03:32:19;7.40;99.90
52275;DHT22;38228;50.940;4.024;2023-02-11T03:37:16;7.50;99.90
52275;DHT22;38228;50.940;4.024;2023-02-11T03:39:45;7.60;99.90
52275;DHT22;38228;50.940;4.024;2023-02-11T03:42:11;7.60;99.90
52275;DHT22;38228;50.940;4.024;2023-02-11T03:44:49;7.60;99.90
52275;DHT22;38228;50.940;4.024;2023-02-11T03:47:16;7.50;99.90
52275;DHT22;38228;50.940;4.024;2023-02-11T03:49:44;7.40;99.90
52275;DHT22;38228;50.940;4.024;2023-02-11T03:52:11;7.60;99.90
52275;DHT22;38228;50.940;4.024;2023-02-11T03:54:38;7.60;99.90
52275;DHT22;38228;50.940;4.024;2023-02-11T03:57:05;7.50;99.90
52275;DHT22;38228;50.940;4.024;2023-02-11T03:59:31;7.50;99.90
52275;DHT22;38228;50.940;4.024;2023-02-11T04:02:13;7.40;99.90
52275;DHT22;38228;50.940;4.024;2023-02-11T04:04:38;7.30;99.90
52275;DHT22;38228;50.940;4.024;2023-02-11T04:07:04;7.30;99.90
52275;DHT22;38228;50.940;4.024;2023-02-11T04:09:29;7.20;99.90
52275;DHT22;38228;50.940;4.024;2023-02-11T04:11:55;7.20;99.90
52275;DHT22;38228;50.940;4.024;2023-02-11T04:14:20;7.30;99.90
52275;DHT22;38228;50.940;4.024;2023-02-11T04:16:46;7.30;99.90
52275;DHT22;38228;50.940;4.024;2023-02-11T04:19:11;7.40;99.90
52275;DHT22;38228;50.940;4.024;2023-02-11T04:21:37;7.50;99.90
52275;DHT22;38228;50.940;4.024;2023-02-11T04:24:03;7.50;99.90
52275;DHT22;38228;50.940;4.024;2023-02-11T04:26:28;7.50;99.90
52275;DHT22;38228;50.940;4.024;2023-02-11T04:28:54;7.60;99.90
52275;DHT22;38228;50.940;4.024;2023-02-11T04:31:19;7.50;99.90
52275;DHT22;38228;50.940;4.024;2023-02-11T04:33:45;7.60;99.90
52275;DHT22;38228;50.940;4.024;2023-02-11T04:36:10;7.60;99.90
52275;DHT22;38228;50.940;4.024;2023-02-11T04:38:37;7.50;99.90
52275;DHT22;38228;50.940;4.024;2023-02-11T04:41:02;7.60;99.90
52275;DHT22;38228;50.940;4.024;2023-02-11T04:43:28;7.50;99.90
52275;DHT22;38228;50.940;4.024;2023-02-11T04:45:57;7.60;99.90
52275;DHT22;38228;50.940;4.024;2023-02-11T04:48:23;7.60;99.90
52275;DHT22;38228;50.940;4.024;2023-02-11T04:50:48;7.60;99.90
52275;DHT22;38228;50.940;4.024;2023-02-11T04:53:14;7.60;99.90
52275;DHT22;38228;50.940;4.024;2023-02-11T04:55:40;7.60;99.90
52275;DHT22;38228;50.940;4.024;2023-02-11T04:58:05;7.60;99.90
52275;DHT22;38228;50.940;4.024;2023-02-11T05:00:31;7.60;99.90
52275;DHT22;38228;50.940;4.024;2023-02-11T05:02:56;7.60;99.90
52275;DHT22;38228;50.940;4.024;2023-02-11T05:05:22;7.70;99.90
52275;DHT22;38228;50.940;4.024;2023-02-11T05:07:47;7.70;99.90
52275;DHT22;38228;50.940;4.024;2023-02-11T05:10:13;7.90;99.90
52275;DHT22;38228;50.940;4.024;2023-02-11T05:12:39;7.90;99.90
52275;DHT22;38228;50.940;4.024;2023-02-11T05:15:04;7.80;99.90
52275;DHT22;38228;50.940;4.024;2023-02-11T05:17:30;7.80;99.90
52275;DHT22;38228;50.940;4.024;2023-02-11T05:19:55;7.70;99.90
52275;DHT22;38228;50.940;4.024;2023-02-11T05:22:21;7.60;99.90
52275;DHT22;38228;50.940;4.024;2023-02-11T05:24:47;7.60;99.90
52275;DHT22;38228;50.940;4.024;2023-02-11T05:27:12;7.70;99.90
52275;DHT22;38228;50.940;4.024;2023-02-11T05:29:38;7.70;99.90
52275;DHT22;38228;50.940;4.024;2023-02-11T05:32:04;7.70;99.90
52275;DHT22;38228;50.940;4.024;2023-02-11T05:34:31;7.60;99.90
52275;DHT22;38228;50.940;4.024;2023-02-11T05:36:57;7.60;99.90
52275;DHT22;38228;50.940;4.024;2023-02-11T05:39:22;7.60;99.90
52275;DHT22;38228;50.940;4.024;2023-02-11T05:41:48;7.60;99.90
52275;DHT22;38228;50.940;4.024;2023-02-11T05:44:13;7.60;99.90
52275;DHT22;38228;50.940;4.024;2023-02-11T05:46:39;7.70;99.90
52275;DHT22;38228;50.940;4.024;2023-02-11T05:49:05;7.70;99.90
52275;DHT22;38228;50.940;4.024;2023-02-11T05:51:30;7.70;99.90
52275;DHT22;38228;50.940;4.024;2023-02-11T05:53:56;7.70;99.90
52275;DHT22;38228;50.940;4.024;2023-02-11T05:56:21;7.70;99.90
52275;DHT22;38228;50.940;4.024;2023-02-11T05:58:47;7.80;99.90
52275;DHT22;38228;50.940;4.024;2023-02-11T06:01:12;7.80;99.90
52275;DHT22;38228;50.940;4.024;2023-02-11T06:03:38;7.80;99.90
52275;DHT22;38228;50.940;4.024;2023-02-11T06:06:04;7.70;99.90
52275;DHT22;38228;50.940;4.024;2023-02-11T06:08:29;7.60;99.90
52275;DHT22;38228;50.940;4.024;2023-02-11T06:10:55;7.60;99.90
52275;DHT22;38228;50.940;4.024;2023-02-11T06:13:20;7.60;99.90
52275;DHT22;38228;50.940;4.024;2023-02-11T06:15:54;7.60;99.90
52275;DHT22;38228;50.940;4.024;2023-02-11T06:18:19;7.50;99.90
52275;DHT22;38228;50.940;4.024;2023-02-11T06:20:45;7.50;99.90
52275;DHT22;38228;50.940;4.024;2023-02-11T06:23:10;7.70;99.90
52275;DHT22;38228;50.940;4.024;2023-02-11T06:25:36;7.80;99.90
52275;DHT22;38228;50.940;4.024;2023-02-11T06:28:01;7.80;99.90
52275;DHT22;38228;50.940;4.024;2023-02-11T06:30:27;7.80;99.90
52275;DHT22;38228;50.940;4.024;2023-02-11T06:32:52;7.80;99.90
52275;DHT22;38228;50.940;4.024;2023-02-11T06:35:19;7.80;99.90
52275;DHT22;38228;50.940;4.024;2023-02-11T06:37:44;7.80;99.90
52275;DHT22;38228;50.940;4.024;2023-02-11T06:40:11;7.80;99.90
52275;DHT22;38228;50.940;4.024;2023-02-11T06:42:37;7.80;99.90
52275;DHT22;38228;50.940;4.024;2023-02-11T06:45:06;7.70;99.90
52275;DHT22;38228;50.940;4.024;2023-02-11T06:47:33;7.60;99.90
52275;DHT22;38228;50.940;4.024;2023-02-11T06:49:59;7.60;99.90
52275;DHT22;38228;50.940;4.024;2023-02-11T06:52:25;7.40;99.90
52275;DHT22;38228;50.940;4.024;2023-02-11T06:54:50;7.30;99.90
52275;DHT22;38228;50.940;4.024;2023-02-11T06:57:16;7.30;99.90
52275;DHT22;38228;50.940;4.024;2023-02-11T06:59:41;7.30;99.90
52275;DHT22;38228;50.940;4.024;2023-02-11T07:02:08;7.40;99.90
52275;DHT22;38228;50.940;4.024;2023-02-11T07:04:34;7.50;99.90
52275;DHT22;38228;50.940;4.024;2023-02-11T07:06:59;7.60;99.90
52275;DHT22;38228;50.940;4.024;2023-02-11T07:09:25;7.50;99.90
52275;DHT22;38228;50.940;4.024;2023-02-11T07:11:50;7.50;99.90
52275;DHT22;38228;50.940;4.024;2023-02-11T07:14:16;7.60;99.90
52275;DHT22;38228;50.940;4.024;2023-02-11T07:16:41;7.60;99.90
52275;DHT22;38228;50.940;4.024;2023-02-11T07:19:07;7.50;99.90
52275;DHT22;38228;50.940;4.024;2023-02-11T07:21:33;7.60;99.90
52275;DHT22;38228;50.940;4.024;2023-02-11T07:23:58;7.60;99.90
52275;DHT22;38228;50.940;4.024;2023-02-11T07:26:24;7.50;99.90
52275;DHT22;38228;50.940;4.024;2023-02-11T07:28:53;7.60;99.90
52275;DHT22;38228;50.940;4.024;2023-02-11T07:31:19;7.70;99.90
52275;DHT22;38228;50.940;4.024;2023-02-11T07:33:45;7.70;99.90
52275;DHT22;38228;50.940;4.024;2023-02-11T07:36:12;7.80;99.90
52275;DHT22;38228;50.940;4.024;2023-02-11T07:38:38;8.00;99.90
52275;DHT22;38228;50.940;4.024;2023-02-11T07:41:05;8.00;99.90
52275;DHT22;38228;50.940;4.024;2023-02-11T07:43:31;8.00;99.90
52275;DHT22;38228;50.940;4.024;2023-02-11T07:45:56;8.00;99.90
52275;DHT22;38228;50.940;4.024;2023-02-11T07:48:22;8.10;99.90
52275;DHT22;38228;50.940;4.024;2023-02-11T07:50:48;8.20;99.90
52275;DHT22;38228;50.940;4.024;2023-02-11T07:53:13;8.10;99.90
52275;DHT22;38228;50.940;4.024;2023-02-11T07:55:39;8.10;99.90
52275;DHT22;38228;50.940;4.024;2023-02-11T07:58:04;8.10;99.90
52275;DHT22;38228;50.940;4.024;2023-02-11T08:00:30;8.00;99.90
52275;DHT22;38228;50.940;4.024;2023-02-11T08:02:56;8.10;99.90
52275;DHT22;38228;50.940;4.024;2023-02-11T08:05:22;8.10;99.90
52275;DHT22;38228;50.940;4.024;2023-02-11T08:07:49;8.20;99.90
52275;DHT22;38228;50.940;4.024;2023-02-11T08:10:15;8.20;99.90
52275;DHT22;38228;50.940;4.024;2023-02-11T08:12:40;8.20;99.90
52275;DHT22;38228;50.940;4.024;2023-02-11T08:15:06;8.20;99.90
52275;DHT22;38228;50.940;4.024;2023-02-11T08:17:33;8.40;99.90
52275;DHT22;38228;50.940;4.024;2023-02-11T08:19:59;8.40;99.90
52275;DHT22;38228;50.940;4.024;2023-02-11T08:22:24;8.50;99.90
52275;DHT22;38228;50.940;4.024;2023-02-11T08:24:50;8.60;99.90
52275;DHT22;38228;50.940;4.024;2023-02-11T08:27:15;8.70;99.90
52275;DHT22;38228;50.940;4.024;2023-02-11T08:29:41;8.80;99.90
52275;DHT22;38228;50.940;4.024;2023-02-11T08:32:06;8.80;99.90
52275;DHT22;38228;50.940;4.024;2023-02-11T08:34:32;8.80;99.90
52275;DHT22;38228;50.940;4.024;2023-02-11T08:36:58;8.70;99.90
52275;DHT22;38228;50.940;4.024;2023-02-11T08:39:24;8.80;99.90
52275;DHT22;38228;50.940;4.024;2023-02-11T08:41:51;8.80;99.90
52275;DHT22;38228;50.940;4.024;2023-02-11T08:44:17;8.90;99.90
52275;DHT22;38228;50.940;4.024;2023-02-11T08:46:43;9.00;99.90
52275;DHT22;38228;50.940;4.024;2023-02-11T08:49:09;9.00;99.90
52275;DHT22;38228;50.940;4.024;2023-02-11T08:51:34;9.00;99.90
52275;DHT22;38228;50.940;4.024;2023-02-11T08:54:00;8.90;99.90
52275;DHT22;38228;50.940;4.024;2023-02-11T08:56:26;8.90;99.90
52275;DHT22;38228;50.940;4.024;2023-02-11T08:58:52;8.90;99.90
52275;DHT22;38228;50.940;4.024;2023-02-11T09:01:20;9.00;99.90
52275;DHT22;38228;50.940;4.024;2023-02-11T09:03:46;9.00;99.90
52275;DHT22;38228;50.940;4.024;2023-02-11T09:06:12;8.90;99.90
52275;DHT22;38228;50.940;4.024;2023-02-11T09:08:39;8.70;99.90
52275;DHT22;38228;50.940;4.024;2023-02-11T09:11:05;8.80;99.90
52275;DHT22;38228;50.940;4.024;2023-02-11T09:13:31;8.90;99.90
52275;DHT22;38228;50.940;4.024;2023-02-11T09:15:58;8.90;99.90
52275;DHT22;38228;50.940;4.024;2023-02-11T09:18:24;8.90;99.90
52275;DHT22;38228;50.940;4.024;2023-02-11T09:20:49;8.90;99.90
52275;DHT22;38228;50.940;4.024;2023-02-11T09:23:18;9.00;99.90
52275;DHT22;38228;50.940;4.024;2023-02-11T09:25:43;9.00;99.90
52275;DHT22;38228;50.940;4.024;2023-02-11T09:28:09;8.90;99.90
52275;DHT22;38228;50.940;4.024;2023-02-11T09:30:35;8.90;99.90
52275;DHT22;38228;50.940;4.024;2023-02-11T09:33:00;9.00;99.90
52275;DHT22;38228;50.940;4.024;2023-02-11T09:35:26;9.10;99.90
52275;DHT22;38228;50.940;4.024;2023-02-11T09:37:52;9.00;99.90
52275;DHT22;38228;50.940;4.024;2023-02-11T09:40:18;9.20;99.90
52275;DHT22;38228;50.940;4.024;2023-02-11T09:42:47;9.30;99.90
52275;DHT22;38228;50.940;4.024;2023-02-11T09:45:22;9.40;99.90
52275;DHT22;38228;50.940;4.024;2023-02-11T09:47:55;9.40;99.90
52275;DHT22;38228;50.940;4.024;2023-02-11T09:53:00;9.40;99.90
52275;DHT22;38228;50.940;4.024;2023-02-11T09:56:01;9.40;99.90
52275;DHT22;38228;50.940;4.024;2023-02-11T09:58:30;9.50;99.90
52275;DHT22;38228;50.940;4.024;2023-02-11T10:01:01;9.50;99.90
52275;DHT22;38228;50.940;4.024;2023-02-11T10:06:10;9.60;99.90
52275;DHT22;38228;50.940;4.024;2023-02-11T10:08:55;9.60;99.90
52275;DHT22;38228;50.940;4.024;2023-02-11T10:15:03;9.60;99.90
52275;DHT22;38228;50.940;4.024;2023-02-11T10:19:44;9.70;99.90
52275;DHT22;38228;50.940;4.024;2023-02-11T10:22:16;9.70;99.90
52275;DHT22;38228;50.940;4.024;2023-02-11T10:24:49;9.50;99.90
52275;DHT22;38228;50.940;4.024;2023-02-11T10:27:16;9.50;99.90
52275;DHT22;38228;50.940;4.024;2023-02-11T10:29:51;9.50;99.90
52275;DHT22;38228;50.940;4.024;2023-02-11T10:34:52;9.60;99.90
52275;DHT22;38228;50.940;4.024;2023-02-11T10:37:19;9.70;99.90
52275;DHT22;38228;50.940;4.024;2023-02-11T10:39:44;9.60;99.90
52275;DHT22;38228;50.940;4.024;2023-02-11T10:42:10;9.60;99.90
52275;DHT22;38228;50.940;4.024;2023-02-11T10:44:37;9.60;99.90
52275;DHT22;38228;50.940;4.024;2023-02-11T10:47:04;9.70;99.90
52275;DHT22;38228;50.940;4.024;2023-02-11T10:49:40;9.60;99.90
52275;DHT22;38228;50.940;4.024;2023-02-11T10:54:37;9.50;99.90
52275;DHT22;38228;50.940;4.024;2023-02-11T10:57:03;9.40;99.90
52275;DHT22;38228;50.940;4.024;2023-02-11T10:59:29;9.50;99.90
52275;DHT22;38228;50.940;4.024;2023-02-11T11:01:56;9.50;99.90
52275;DHT22;38228;50.940;4.024;2023-02-11T11:06:49;9.60;99.90
52275;DHT22;38228;50.940;4.024;2023-02-11T11:09:26;9.70;99.90
52275;DHT22;38228;50.940;4.024;2023-02-11T11:11:52;9.80;99.90
52275;DHT22;38228;50.940;4.024;2023-02-11T11:14:18;9.80;99.90
52275;DHT22;38228;50.940;4.024;2023-02-11T11:16:51;9.90;99.90
52275;DHT22;38228;50.940;4.024;2023-02-11T11:19:23;9.80;99.90
52275;DHT22;38228;50.940;4.024;2023-02-11T11:21:52;9.80;99.90
52275;DHT22;38228;50.940;4.024;2023-02-11T11:24:20;9.80;99.90
52275;DHT22;38228;50.940;4.024;2023-02-11T11:26:51;9.80;99.90
52275;DHT22;38228;50.940;4.024;2023-02-11T11:31:55;9.70;99.90
52275;DHT22;38228;50.940;4.024;2023-02-11T11:36:47;10.10;99.90
52275;DHT22;38228;50.940;4.024;2023-02-11T11:39:18;10.20;99.90
52275;DHT22;38228;50.940;4.024;2023-02-11T11:41:48;10.10;99.90
52275;DHT22;38228;50.940;4.024;2023-02-11T11:46:45;10.10;99.90
52275;DHT22;38228;50.940;4.024;2023-02-11T11:49:21;10.10;99.90
52275;DHT22;38228;50.940;4.024;2023-02-11T11:52:09;10.20;99.90
52275;DHT22;38228;50.940;4.024;2023-02-11T11:54:36;10.30;99.90
52275;DHT22;38228;50.940;4.024;2023-02-11T11:57:04;10.40;99.90
52275;DHT22;38228;50.940;4.024;2023-02-11T11:59:34;10.40;99.90
52275;DHT22;38228;50.940;4.024;2023-02-11T12:02:10;10.40;99.90
52275;DHT22;38228;50.940;4.024;2023-02-11T12:14:54;10.60;99.90
52275;DHT22;38228;50.940;4.024;2023-02-11T12:20:01;10.40;99.90
52275;DHT22;38228;50.940;4.024;2023-02-11T12:22:33;10.40;99.90
52275;DHT22;38228;50.940;4.024;2023-02-11T12:32:57;10.30;99.90
52275;DHT22;38228;50.940;4.024;2023-02-11T12:35:27;10.40;99.90
52275;DHT22;38228;50.940;4.024;2023-02-11T12:38:09;10.40;99.90
52275;DHT22;38228;50.940;4.024;2023-02-11T12:40:42;10.30;99.90
52275;DHT22;38228;50.940;4.024;2023-02-11T12:46:20;10.20;99.90
52275;DHT22;38228;50.940;4.024;2023-02-11T12:48:38;10.00;99.90
52275;DHT22;38228;50.940;4.024;2023-02-11T12:56:05;10.20;99.90
52275;DHT22;38228;50.940;4.024;2023-02-11T12:58:34;10.20;99.90
52275;DHT22;38228;50.940;4.024;2023-02-11T13:01:04;10.30;99.90
52275;DHT22;38228;50.940;4.024;2023-02-11T13:06:05;10.50;99.90
52275;DHT22;38228;50.940;4.024;2023-02-11T13:08:36;10.40;99.90
52275;DHT22;38228;50.940;4.024;2023-02-11T13:11:04;10.40;99.90
52275;DHT22;38228;50.940;4.024;2023-02-11T13:13:55;10.50;99.90
52275;DHT22;38228;50.940;4.024;2023-02-11T13:19:06;10.20;99.90
52275;DHT22;38228;50.940;4.024;2023-02-11T13:24:07;10.30;99.90
52275;DHT22;38228;50.940;4.024;2023-02-11T13:26:43;10.30;99.90
52275;DHT22;38228;50.940;4.024;2023-02-11T13:29:19;10.30;99.90
52275;DHT22;38228;50.940;4.024;2023-02-11T13:31:53;10.30;99.90
52275;DHT22;38228;50.940;4.024;2023-02-11T13:34:53;10.20;99.90
52275;DHT22;38228;50.940;4.024;2023-02-11T13:37:18;10.40;99.90
52275;DHT22;38228;50.940;4.024;2023-02-11T13:39:58;10.40;99.90
52275;DHT22;38228;50.940;4.024;2023-02-11T13:42:24;10.40;99.90
52275;DHT22;38228;50.940;4.024;2023-02-11T13:44:50;10.40;99.90
52275;DHT22;38228;50.940;4.024;2023-02-11T13:47:26;10.50;99.90
52275;DHT22;38228;50.940;4.024;2023-02-11T13:49:54;10.50;99.90
52275;DHT22;38228;50.940;4.024;2023-02-11T13:52:22;10.30;99.90
52275;DHT22;38228;50.940;4.024;2023-02-11T13:54:49;10.30;99.90
52275;DHT22;38228;50.940;4.024;2023-02-11T13:59:46;10.20;99.90
52275;DHT22;38228;50.940;4.024;2023-02-11T14:02:25;10.30;99.90
52275;DHT22;38228;50.940;4.024;2023-02-11T14:10:55;10.20;99.90
52275;DHT22;38228;50.940;4.024;2023-02-11T14:13:27;10.20;99.90
52275;DHT22;38228;50.940;4.024;2023-02-11T14:16:07;10.30;99.90
52275;DHT22;38228;50.940;4.024;2023-02-11T14:21:18;10.40;99.90
52275;DHT22;38228;50.940;4.024;2023-02-11T14:23:44;10.30;99.90
52275;DHT22;38228;50.940;4.024;2023-02-11T14:28:35;10.40;99.90
52275;DHT22;38228;50.940;4.024;2023-02-11T14:31:09;10.40;99.90
52275;DHT22;38228;50.940;4.024;2023-02-11T14:41:10;10.20;99.90
52275;DHT22;38228;50.940;4.024;2023-02-11T14:43:43;10.10;99.90
52275;DHT22;38228;50.940;4.024;2023-02-11T14:46:12;10.10;99.90
52275;DHT22;38228;50.940;4.024;2023-02-11T14:48:39;10.30;99.90
52275;DHT22;38228;50.940;4.024;2023-02-11T14:51:09;10.30;99.90
52275;DHT22;38228;50.940;4.024;2023-02-11T14:53:35;10.30;99.90
52275;DHT22;38228;50.940;4.024;2023-02-11T14:56:01;10.30;99.90
52275;DHT22;38228;50.940;4.024;2023-02-11T14:58:27;10.40;99.90
52275;DHT22;38228;50.940;4.024;2023-02-11T15:03:46;10.50;99.90
52275;DHT22;38228;50.940;4.024;2023-02-11T15:11:15;10.40;99.90
52275;DHT22;38228;50.940;4.024;2023-02-11T15:13:41;10.40;99.90
52275;DHT22;38228;50.940;4.024;2023-02-11T15:16:14;10.40;99.90
52275;DHT22;38228;50.940;4.024;2023-02-11T15:18:44;10.20;99.90
52275;DHT22;38228;50.940;4.024;2023-02-11T15:21:10;10.20;99.90
52275;DHT22;38228;50.940;4.024;2023-02-11T15:23:36;10.10;99.90
52275;DHT22;38228;50.940;4.024;2023-02-11T15:26:10;10.10;99.90
52275;DHT22;38228;50.940;4.024;2023-02-11T15:28:36;10.10;99.90
52275;DHT22;38228;50.940;4.024;2023-02-11T15:31:03;10.30;99.90
52275;DHT22;38228;50.940;4.024;2023-02-11T15:33:29;10.30;99.90
52275;DHT22;38228;50.940;4.024;2023-02-11T15:35:57;10.40;99.90
52275;DHT22;38228;50.940;4.024;2023-02-11T15:38:22;10.40;99.90
52275;DHT22;38228;50.940;4.024;2023-02-11T15:40:58;10.50;99.90
52275;DHT22;38228;50.940;4.024;2023-02-11T15:46:10;10.30;99.90
52275;DHT22;38228;50.940;4.024;2023-02-11T15:48:37;10.30;99.90
52275;DHT22;38228;50.940;4.024;2023-02-11T15:51:17;10.40;99.90
52275;DHT22;38228;50.940;4.024;2023-02-11T15:53:46;10.30;99.90
52275;DHT22;38228;50.940;4.024;2023-02-11T15:56:14;10.30;99.90
52275;DHT22;38228;50.940;4.024;2023-02-11T15:58:42;10.20;99.90
52275;DHT22;38228;50.940;4.024;2023-02-11T16:01:09;10.10;99.90
52275;DHT22;38228;50.940;4.024;2023-02-11T16:03:35;10.10;99.90
52275;DHT22;38228;50.940;4.024;2023-02-11T16:08:41;10.20;99.90
52275;DHT22;38228;50.940;4.024;2023-02-11T16:11:24;10.10;99.90
52275;DHT22;38228;50.940;4.024;2023-02-11T16:13:50;10.10;99.90
52275;DHT22;38228;50.940;4.024;2023-02-11T16:16:17;10.20;99.90
52275;DHT22;38228;50.940;4.024;2023-02-11T16:18:44;10.10;99.90
52275;DHT22;38228;50.940;4.024;2023-02-11T16:21:15;10.10;99.90
52275;DHT22;38228;50.940;4.024;2023-02-11T16:23:41;10.10;99.90
52275;DHT22;38228;50.940;4.024;2023-02-11T16:28:36;10.30;99.90
52275;DHT22;38228;50.940;4.024;2023-02-11T16:31:02;10.40;99.90
52275;DHT22;38228;50.940;4.024;2023-02-11T16:33:27;10.20;99.90
52275;DHT22;38228;50.940;4.024;2023-02-11T16:35:53;10.10;99.90
52275;DHT22;38228;50.940;4.024;2023-02-11T16:38:19;10.00;99.90
52275;DHT22;38228;50.940;4.024;2023-02-11T16:40:44;9.90;99.90
52275;DHT22;38228;50.940;4.024;2023-02-11T16:43:13;10.00;99.90
52275;DHT22;38228;50.940;4.024;2023-02-11T16:45:39;10.00;99.90
52275;DHT22;38228;50.940;4.024;2023-02-11T16:48:05;9.90;99.90
52275;DHT22;38228;50.940;4.024;2023-02-11T16:50:31;9.80;99.90
52275;DHT22;38228;50.940;4.024;2023-02-11T16:52:57;9.80;99.90
52275;DHT22;38228;50.940;4.024;2023-02-11T16:55:23;9.80;99.90
52275;DHT22;38228;50.940;4.024;2023-02-11T16:57:49;9.90;99.90
52275;DHT22;38228;50.940;4.024;2023-02-11T17:00:15;9.80;99.90
52275;DHT22;38228;50.940;4.024;2023-02-11T17:02:41;9.90;99.90
52275;DHT22;38228;50.940;4.024;2023-02-11T17:05:10;9.90;99.90
52275;DHT22;38228;50.940;4.024;2023-02-11T17:07:39;9.80;99.90
52275;DHT22;38228;50.940;4.024;2023-02-11T17:10:15;9.80;99.90
52275;DHT22;38228;50.940;4.024;2023-02-11T17:12:41;9.80;99.90
52275;DHT22;38228;50.940;4.024;2023-02-11T17:15:07;9.80;99.90
52275;DHT22;38228;50.940;4.024;2023-02-11T17:17:32;9.90;99.90
52275;DHT22;38228;50.940;4.024;2023-02-11T17:19:58;9.80;99.90
52275;DHT22;38228;50.940;4.024;2023-02-11T17:22:23;9.80;99.90
52275;DHT22;38228;50.940;4.024;2023-02-11T17:24:49;9.80;99.90
52275;DHT22;38228;50.940;4.024;2023-02-11T17:27:15;9.90;99.90
52275;DHT22;38228;50.940;4.024;2023-02-11T17:29:41;9.90;99.90
52275;DHT22;38228;50.940;4.024;2023-02-11T17:32:06;10.00;99.90
52275;DHT22;38228;50.940;4.024;2023-02-11T17:34:32;10.00;99.90
52275;DHT22;38228;50.940;4.024;2023-02-11T17:36:58;9.90;99.90
52275;DHT22;38228;50.940;4.024;2023-02-11T17:39:24;9.90;99.90
52275;DHT22;38228;50.940;4.024;2023-02-11T17:41:50;9.90;99.90
52275;DHT22;38228;50.940;4.024;2023-02-11T17:44:16;10.00;99.90
52275;DHT22;38228;50.940;4.024;2023-02-11T17:46:41;10.00;99.90
52275;DHT22;38228;50.940;4.024;2023-02-11T17:49:08;9.90;99.90
52275;DHT22;38228;50.940;4.024;2023-02-11T17:51:35;9.80;99.90
52275;DHT22;38228;50.940;4.024;2023-02-11T17:54:02;9.90;99.90
52275;DHT22;38228;50.940;4.024;2023-02-11T17:56:30;9.90;99.90